sensor_id;sensor_type;location;lat;lon;timestamp;P1;durP1;ratioP1;P2;durP2;ratioP2
40945;SDS011;55635;50.264;11.918;2023-06-10T00:00:05;8.30;;;7.45;;
40945;SDS011;55635;50.264;11.918;2023-06-10T00:02:52;8.15;;;7.28;;
40945;SDS011;55635;50.264;11.918;2023-06-10T00:05:33;10.73;;;7.38;;
40945;SDS011;55635;50.264;11.918;2023-06-10T00:08:16;8.80;;;8.00;;
40945;SDS011;55635;50.264;11.918;2023-06-10T00:10:59;9.93;;;8.02;;
40945;SDS011;55635;50.264;11.918;2023-06-10T00:13:40;8.52;;;7.75;;
40945;SDS011;55635;50.264;11.918;2023-06-10T00:16:21;9.30;;;7.38;;
40945;SDS011;55635;50.264;11.918;2023-06-10T00:19:03;7.82;;;6.80;;
40945;SDS011;55635;50.264;11.918;2023-06-10T00:21:44;8.07;;;6.85;;
40945;SDS011;55635;50.264;11.918;2023-06-10T00:24:25;8.57;;;7.78;;
40945;SDS011;55635;50.264;11.918;2023-06-10T00:27:06;8.65;;;7.85;;
40945;SDS011;55635;50.264;11.918;2023-06-10T00:29:47;9.10;;;8.20;;
40945;SDS011;55635;50.264;11.918;2023-06-10T00:32:28;9.02;;;8.20;;
40945;SDS011;55635;50.264;11.918;2023-06-10T00:35:09;9.95;;;8.95;;
40945;SDS011;55635;50.264;11.918;2023-06-10T00:37:50;9.00;;;8.10;;
40945;SDS011;55635;50.264;11.918;2023-06-10T00:40:33;10.07;;;9.07;;
40945;SDS011;55635;50.264;11.918;2023-06-10T00:43:19;9.68;;;7.80;;
40945;SDS011;55635;50.264;11.918;2023-06-10T00:46:00;9.82;;;8.93;;
40945;SDS011;55635;50.264;11.918;2023-06-10T00:48:44;9.25;;;8.35;;
40945;SDS011;55635;50.264;11.918;2023-06-10T00:51:26;9.52;;;8.45;;
40945;SDS011;55635;50.264;11.918;2023-06-10T00:54:07;8.98;;;8.18;;
40945;SDS011;55635;50.264;11.918;2023-06-10T00:56:48;11.30;;;9.40;;
40945;SDS011;55635;50.264;11.918;2023-06-10T00:59:30;10.13;;;9.10;;
40945;SDS011;55635;50.264;11.918;2023-06-10T01:02:12;11.88;;;9.85;;
40945;SDS011;55635;50.264;11.918;2023-06-10T01:04:53;12.43;;;11.10;;
40945;SDS011;55635;50.264;11.918;2023-06-10T01:07:35;10.75;;;9.75;;
40945;SDS011;55635;50.264;11.918;2023-06-10T01:11:07;11.75;;;10.25;;
40945;SDS011;55635;50.264;11.918;2023-06-10T01:13:51;11.63;;;10.50;;
40945;SDS011;55635;50.264;11.918;2023-06-10T01:16:37;12.52;;;11.25;;
40945;SDS011;55635;50.264;11.918;2023-06-10T01:19:20;13.90;;;10.75;;
40945;SDS011;55635;50.264;11.918;2023-06-10T01:22:04;10.95;;;9.80;;
40945;SDS011;55635;50.264;11.918;2023-06-10T01:24:45;11.73;;;10.23;;
40945;SDS011;55635;50.264;11.918;2023-06-10T01:27:32;13.63;;;10.50;;
40945;SDS011;55635;50.264;11.918;2023-06-10T01:30:20;11.95;;;10.75;;
40945;SDS011;55635;50.264;11.918;2023-06-10T01:33:10;10.55;;;9.50;;
40945;SDS011;55635;50.264;11.918;2023-06-10T01:35:56;11.60;;;10.40;;
40945;SDS011;55635;50.264;11.918;2023-06-10T01:38:42;12.82;;;10.48;;
40945;SDS011;55635;50.264;11.918;2023-06-10T01:41:25;12.57;;;10.10;;
40945;SDS011;55635;50.264;11.918;2023-06-10T01:44:06;12.23;;;10.93;;
40945;SDS011;55635;50.264;11.918;2023-06-10T01:46:48;10.93;;;9.82;;
40945;SDS011;55635;50.264;11.918;2023-06-10T01:49:29;12.80;;;9.88;;
40945;SDS011;55635;50.264;11.918;2023-06-10T01:52:10;11.52;;;10.32;;
40945;SDS011;55635;50.264;11.918;2023-06-10T01:54:51;9.90;;;8.90;;
40945;SDS011;55635;50.264;11.918;2023-06-10T01:57:32;11.77;;;9.43;;
40945;SDS011;55635;50.264;11.918;2023-06-10T02:00:13;13.00;;;10.30;;
40945;SDS011;55635;50.264;11.918;2023-06-10T02:02:58;11.05;;;9.95;;
40945;SDS011;55635;50.264;11.918;2023-06-10T02:05:39;11.27;;;10.18;;
40945;SDS011;55635;50.264;11.918;2023-06-10T02:08:20;11.02;;;9.93;;
40945;SDS011;55635;50.264;11.918;2023-06-10T02:11:01;12.15;;;10.95;;
40945;SDS011;55635;50.264;11.918;2023-06-10T02:13:43;12.40;;;9.85;;
40945;SDS011;55635;50.264;11.918;2023-06-10T02:16:24;13.90;;;11.52;;
40945;SDS011;55635;50.264;11.918;2023-06-10T02:19:06;13.07;;;11.18;;
40945;SDS011;55635;50.264;11.918;2023-06-10T02:21:47;12.23;;;11.00;;
40945;SDS011;55635;50.264;11.918;2023-06-10T02:24:28;15.40;;;13.32;;
40945;SDS011;55635;50.264;11.918;2023-06-10T02:27:10;14.18;;;12.23;;
40945;SDS011;55635;50.264;11.918;2023-06-10T02:29:51;11.52;;;10.32;;
40945;SDS011;55635;50.264;11.918;2023-06-10T02:32:32;11.43;;;10.32;;
40945;SDS011;55635;50.264;11.918;2023-06-10T02:35:14;12.85;;;11.55;;
40945;SDS011;55635;50.264;11.918;2023-06-10T02:37:56;12.27;;;10.88;;
40945;SDS011;55635;50.264;11.918;2023-06-10T02:40:37;12.77;;;11.20;;
40945;SDS011;55635;50.264;11.918;2023-06-10T02:43:18;14.75;;;12.40;;
40945;SDS011;55635;50.264;11.918;2023-06-10T02:46:01;14.30;;;12.07;;
40945;SDS011;55635;50.264;11.918;2023-06-10T02:48:42;11.93;;;10.55;;
40945;SDS011;55635;50.264;11.918;2023-06-10T02:51:27;11.93;;;10.73;;
40945;SDS011;55635;50.264;11.918;2023-06-10T02:54:13;11.55;;;10.35;;
40945;SDS011;55635;50.264;11.918;2023-06-10T02:56:54;13.93;;;10.07;;
40945;SDS011;55635;50.264;11.918;2023-06-10T02:59:40;12.52;;;9.45;;
40945;SDS011;55635;50.264;11.918;2023-06-10T03:02:22;9.95;;;8.95;;
40945;SDS011;55635;50.264;11.918;2023-06-10T03:05:09;10.55;;;9.38;;
40945;SDS011;55635;50.264;11.918;2023-06-10T03:07:51;13.02;;;9.48;;
40945;SDS011;55635;50.264;11.918;2023-06-10T03:10:32;11.95;;;10.73;;
40945;SDS011;55635;50.264;11.918;2023-06-10T03:13:14;11.15;;;10.05;;
40945;SDS011;55635;50.264;11.918;2023-06-10T03:15:55;11.55;;;10.05;;
40945;SDS011;55635;50.264;11.918;2023-06-10T03:18:38;10.85;;;9.68;;
40945;SDS011;55635;50.264;11.918;2023-06-10T03:21:20;13.25;;;10.65;;
40945;SDS011;55635;50.264;11.918;2023-06-10T03:24:02;13.50;;;11.85;;
40945;SDS011;55635;50.264;11.918;2023-06-10T03:26:45;12.35;;;10.70;;
40945;SDS011;55635;50.264;11.918;2023-06-10T03:29:27;13.20;;;11.27;;
40945;SDS011;55635;50.264;11.918;2023-06-10T03:32:08;11.95;;;10.75;;
40945;SDS011;55635;50.264;11.918;2023-06-10T03:34:51;14.20;;;12.77;;
40945;SDS011;55635;50.264;11.918;2023-06-10T03:37:38;12.77;;;11.38;;
40945;SDS011;55635;50.264;11.918;2023-06-10T03:40:19;13.30;;;11.57;;
40945;SDS011;55635;50.264;11.918;2023-06-10T03:43:02;11.85;;;10.65;;
40945;SDS011;55635;50.264;11.918;2023-06-10T03:45:44;13.25;;;10.40;;
40945;SDS011;55635;50.264;11.918;2023-06-10T03:48:25;12.50;;;10.50;;
40945;SDS011;55635;50.264;11.918;2023-06-10T03:51:07;11.80;;;10.70;;
40945;SDS011;55635;50.264;11.918;2023-06-10T03:53:48;11.80;;;10.57;;
40945;SDS011;55635;50.264;11.918;2023-06-10T03:56:29;12.07;;;10.65;;
40945;SDS011;55635;50.264;11.918;2023-06-10T03:59:11;13.40;;;9.82;;
40945;SDS011;55635;50.264;11.918;2023-06-10T04:01:52;14.05;;;12.05;;
40945;SDS011;55635;50.264;11.918;2023-06-10T04:04:33;13.48;;;10.32;;
40945;SDS011;55635;50.264;11.918;2023-06-10T04:07:14;11.52;;;9.90;;
40945;SDS011;55635;50.264;11.918;2023-06-10T04:09:55;11.68;;;10.48;;
40945;SDS011;55635;50.264;11.918;2023-06-10T04:12:37;13.65;;;10.10;;
40945;SDS011;55635;50.264;11.918;2023-06-10T04:15:18;10.52;;;9.52;;
40945;SDS011;55635;50.264;11.918;2023-06-10T04:18:00;12.70;;;10.52;;
40945;SDS011;55635;50.264;11.918;2023-06-10T04:20:44;13.90;;;10.95;;
40945;SDS011;55635;50.264;11.918;2023-06-10T04:23:25;11.20;;;10.00;;
40945;SDS011;55635;50.264;11.918;2023-06-10T04:26:06;12.40;;;11.07;;
40945;SDS011;55635;50.264;11.918;2023-06-10T04:28:47;19.30;;;12.10;;
40945;SDS011;55635;50.264;11.918;2023-06-10T04:31:29;14.25;;;11.63;;
40945;SDS011;55635;50.264;11.918;2023-06-10T04:34:10;12.38;;;11.23;;
40945;SDS011;55635;50.264;11.918;2023-06-10T04:36:51;13.20;;;11.77;;
40945;SDS011;55635;50.264;11.918;2023-06-10T04:39:32;15.77;;;12.80;;
40945;SDS011;55635;50.264;11.918;2023-06-10T04:42:15;15.82;;;12.60;;
40945;SDS011;55635;50.264;11.918;2023-06-10T04:44:56;25.85;;;13.60;;
40945;SDS011;55635;50.264;11.918;2023-06-10T04:47:38;14.32;;;12.82;;
40945;SDS011;55635;50.264;11.918;2023-06-10T04:50:20;18.83;;;14.20;;
40945;SDS011;55635;50.264;11.918;2023-06-10T04:53:01;12.85;;;11.55;;
40945;SDS011;55635;50.264;11.918;2023-06-10T04:55:42;15.35;;;13.50;;
40945;SDS011;55635;50.264;11.918;2023-06-10T04:58:24;15.88;;;14.15;;
40945;SDS011;55635;50.264;11.918;2023-06-10T05:01:05;15.63;;;13.88;;
40945;SDS011;55635;50.264;11.918;2023-06-10T05:03:46;14.60;;;13.05;;
40945;SDS011;55635;50.264;11.918;2023-06-10T05:06:26;15.30;;;13.38;;
40945;SDS011;55635;50.264;11.918;2023-06-10T05:09:07;17.08;;;12.52;;
40945;SDS011;55635;50.264;11.918;2023-06-10T05:11:49;14.95;;;13.07;;
40945;SDS011;55635;50.264;11.918;2023-06-10T05:14:30;15.18;;;13.63;;
40945;SDS011;55635;50.264;11.918;2023-06-10T05:17:11;16.65;;;13.52;;
40945;SDS011;55635;50.264;11.918;2023-06-10T05:19:53;20.73;;;14.25;;
40945;SDS011;55635;50.264;11.918;2023-06-10T05:22:33;15.23;;;13.18;;
40945;SDS011;55635;50.264;11.918;2023-06-10T05:25:14;15.55;;;13.27;;
40945;SDS011;55635;50.264;11.918;2023-06-10T05:27:55;15.85;;;13.48;;
40945;SDS011;55635;50.264;11.918;2023-06-10T05:30:36;16.45;;;13.50;;
40945;SDS011;55635;50.264;11.918;2023-06-10T05:33:17;22.85;;;13.82;;
40945;SDS011;55635;50.264;11.918;2023-06-10T05:35:58;15.10;;;13.48;;
40945;SDS011;55635;50.264;11.918;2023-06-10T05:38:39;15.10;;;12.70;;
40945;SDS011;55635;50.264;11.918;2023-06-10T05:41:20;16.48;;;13.18;;
40945;SDS011;55635;50.264;11.918;2023-06-10T05:44:02;17.70;;;13.80;;
40945;SDS011;55635;50.264;11.918;2023-06-10T05:46:43;16.10;;;13.68;;
40945;SDS011;55635;50.264;11.918;2023-06-10T05:49:24;16.80;;;13.02;;
40945;SDS011;55635;50.264;11.918;2023-06-10T05:52:05;13.93;;;12.57;;
40945;SDS011;55635;50.264;11.918;2023-06-10T05:54:49;15.20;;;12.68;;
40945;SDS011;55635;50.264;11.918;2023-06-10T05:57:30;15.02;;;12.35;;
40945;SDS011;55635;50.264;11.918;2023-06-10T06:00:11;13.95;;;12.55;;
40945;SDS011;55635;50.264;11.918;2023-06-10T06:02:53;15.15;;;13.30;;
40945;SDS011;55635;50.264;11.918;2023-06-10T06:05:34;13.93;;;12.32;;
40945;SDS011;55635;50.264;11.918;2023-06-10T06:08:17;13.57;;;12.18;;
40945;SDS011;55635;50.264;11.918;2023-06-10T06:10:58;16.98;;;12.82;;
40945;SDS011;55635;50.264;11.918;2023-06-10T06:13:39;14.02;;;12.55;;
40945;SDS011;55635;50.264;11.918;2023-06-10T06:16:21;13.63;;;11.48;;
40945;SDS011;55635;50.264;11.918;2023-06-10T06:19:02;13.60;;;11.27;;
40945;SDS011;55635;50.264;11.918;2023-06-10T06:21:43;11.95;;;10.10;;
40945;SDS011;55635;50.264;11.918;2023-06-10T06:24:24;12.52;;;10.32;;
40945;SDS011;55635;50.264;11.918;2023-06-10T06:27:05;11.32;;;9.02;;
40945;SDS011;55635;50.264;11.918;2023-06-10T06:29:46;9.75;;;8.85;;
40945;SDS011;55635;50.264;11.918;2023-06-10T06:32:27;10.73;;;9.00;;
40945;SDS011;55635;50.264;11.918;2023-06-10T06:35:08;11.10;;;9.52;;
40945;SDS011;55635;50.264;11.918;2023-06-10T06:37:49;9.93;;;8.95;;
40945;SDS011;55635;50.264;11.918;2023-06-10T06:40:39;9.30;;;8.40;;
40945;SDS011;55635;50.264;11.918;2023-06-10T06:43:19;9.10;;;8.20;;
40945;SDS011;55635;50.264;11.918;2023-06-10T06:46:19;10.15;;;9.15;;
40945;SDS011;55635;50.264;11.918;2023-06-10T06:49:00;9.75;;;8.80;;
40945;SDS011;55635;50.264;11.918;2023-06-10T06:51:40;13.32;;;9.68;;
40945;SDS011;55635;50.264;11.918;2023-06-10T06:54:21;8.63;;;7.93;;
40945;SDS011;55635;50.264;11.918;2023-06-10T06:57:02;10.98;;;7.95;;
40945;SDS011;55635;50.264;11.918;2023-06-10T06:59:44;8.23;;;7.40;;
40945;SDS011;55635;50.264;11.918;2023-06-10T07:02:24;8.35;;;7.03;;
40945;SDS011;55635;50.264;11.918;2023-06-10T07:05:05;10.90;;;7.88;;
40945;SDS011;55635;50.264;11.918;2023-06-10T07:07:48;7.57;;;6.93;;
40945;SDS011;55635;50.264;11.918;2023-06-10T07:10:34;7.95;;;7.13;;
40945;SDS011;55635;50.264;11.918;2023-06-10T07:13:15;7.82;;;7.03;;
40945;SDS011;55635;50.264;11.918;2023-06-10T07:15:56;12.45;;;6.78;;
40945;SDS011;55635;50.264;11.918;2023-06-10T07:18:37;7.68;;;6.97;;
40945;SDS011;55635;50.264;11.918;2023-06-10T07:21:18;9.20;;;7.35;;
40945;SDS011;55635;50.264;11.918;2023-06-10T07:23:59;11.35;;;7.32;;
40945;SDS011;55635;50.264;11.918;2023-06-10T07:26:40;7.45;;;6.47;;
40945;SDS011;55635;50.264;11.918;2023-06-10T07:29:21;7.22;;;6.20;;
40945;SDS011;55635;50.264;11.918;2023-06-10T07:32:03;7.65;;;6.95;;
40945;SDS011;55635;50.264;11.918;2023-06-10T07:34:44;7.68;;;7.07;;
40945;SDS011;55635;50.264;11.918;2023-06-10T07:37:25;7.72;;;6.45;;
40945;SDS011;55635;50.264;11.918;2023-06-10T07:40:06;8.27;;;7.53;;
40945;SDS011;55635;50.264;11.918;2023-06-10T07:42:47;7.07;;;6.47;;
40945;SDS011;55635;50.264;11.918;2023-06-10T07:45:28;7.65;;;6.95;;
40945;SDS011;55635;50.264;11.918;2023-06-10T07:48:09;7.22;;;6.70;;
40945;SDS011;55635;50.264;11.918;2023-06-10T07:50:51;7.72;;;6.72;;
40945;SDS011;55635;50.264;11.918;2023-06-10T07:53:32;6.60;;;6.00;;
40945;SDS011;55635;50.264;11.918;2023-06-10T07:56:13;7.22;;;6.63;;
40945;SDS011;55635;50.264;11.918;2023-06-10T07:58:54;7.63;;;6.97;;
40945;SDS011;55635;50.264;11.918;2023-06-10T08:01:35;9.55;;;6.75;;
40945;SDS011;55635;50.264;11.918;2023-06-10T08:04:18;7.15;;;6.60;;
40945;SDS011;55635;50.264;11.918;2023-06-10T08:06:59;6.80;;;6.15;;
40945;SDS011;55635;50.264;11.918;2023-06-10T08:09:39;6.88;;;6.32;;
40945;SDS011;55635;50.264;11.918;2023-06-10T08:12:20;7.50;;;5.90;;
40945;SDS011;55635;50.264;11.918;2023-06-10T08:15:02;8.18;;;6.18;;
40945;SDS011;55635;50.264;11.918;2023-06-10T08:17:44;5.90;;;5.40;;
40945;SDS011;55635;50.264;11.918;2023-06-10T08:20:25;7.03;;;6.43;;
40945;SDS011;55635;50.264;11.918;2023-06-10T08:23:06;6.82;;;6.20;;
40945;SDS011;55635;50.264;11.918;2023-06-10T08:25:47;6.88;;;5.70;;
40945;SDS011;55635;50.264;11.918;2023-06-10T08:28:28;6.07;;;5.43;;
40945;SDS011;55635;50.264;11.918;2023-06-10T08:31:09;7.22;;;5.68;;
40945;SDS011;55635;50.264;11.918;2023-06-10T08:33:50;9.70;;;6.10;;
40945;SDS011;55635;50.264;11.918;2023-06-10T08:36:31;6.55;;;5.85;;
40945;SDS011;55635;50.264;11.918;2023-06-10T08:39:11;9.13;;;6.38;;
40945;SDS011;55635;50.264;11.918;2023-06-10T08:44:55;7.65;;;5.85;;
40945;SDS011;55635;50.264;11.918;2023-06-10T08:47:36;6.25;;;5.70;;
40945;SDS011;55635;50.264;11.918;2023-06-10T08:50:20;5.93;;;5.43;;
40945;SDS011;55635;50.264;11.918;2023-06-10T08:53:01;8.82;;;6.45;;
40945;SDS011;55635;50.264;11.918;2023-06-10T08:55:50;6.10;;;5.57;;
40945;SDS011;55635;50.264;11.918;2023-06-10T08:58:32;5.97;;;5.10;;
40945;SDS011;55635;50.264;11.918;2023-06-10T09:01:15;7.60;;;5.85;;
40945;SDS011;55635;50.264;11.918;2023-06-10T09:03:58;6.13;;;5.63;;
40945;SDS011;55635;50.264;11.918;2023-06-10T09:06:40;5.97;;;5.47;;
40945;SDS011;55635;50.264;11.918;2023-06-10T09:09:21;5.53;;;5.13;;
40945;SDS011;55635;50.264;11.918;2023-06-10T09:12:03;7.45;;;5.13;;
40945;SDS011;55635;50.264;11.918;2023-06-10T09:14:44;5.72;;;5.15;;
40945;SDS011;55635;50.264;11.918;2023-06-10T09:17:25;6.50;;;5.35;;
40945;SDS011;55635;50.264;11.918;2023-06-10T09:20:08;5.88;;;5.22;;
40945;SDS011;55635;50.264;11.918;2023-06-10T09:22:49;5.00;;;4.60;;
40945;SDS011;55635;50.264;11.918;2023-06-10T09:25:37;5.95;;;5.15;;
40945;SDS011;55635;50.264;11.918;2023-06-10T09:28:18;19.13;;;6.10;;
40945;SDS011;55635;50.264;11.918;2023-06-10T09:31:03;11.88;;;5.68;;
40945;SDS011;55635;50.264;11.918;2023-06-10T09:33:45;5.20;;;4.80;;
40945;SDS011;55635;50.264;11.918;2023-06-10T09:36:26;5.65;;;5.25;;
40945;SDS011;55635;50.264;11.918;2023-06-10T09:39:16;6.15;;;5.65;;
40945;SDS011;55635;50.264;11.918;2023-06-10T09:41:58;7.45;;;5.75;;
40945;SDS011;55635;50.264;11.918;2023-06-10T09:44:39;6.32;;;5.85;;
40945;SDS011;55635;50.264;11.918;2023-06-10T09:47:20;6.90;;;6.20;;
40945;SDS011;55635;50.264;11.918;2023-06-10T09:50:02;6.50;;;6.00;;
40945;SDS011;55635;50.264;11.918;2023-06-10T09:52:44;6.22;;;5.63;;
40945;SDS011;55635;50.264;11.918;2023-06-10T09:55:28;7.18;;;6.28;;
40945;SDS011;55635;50.264;11.918;2023-06-10T09:58:12;7.07;;;6.47;;
40945;SDS011;55635;50.264;11.918;2023-06-10T10:00:54;6.63;;;5.95;;
40945;SDS011;55635;50.264;11.918;2023-06-10T10:03:44;6.88;;;6.20;;
40945;SDS011;55635;50.264;11.918;2023-06-10T10:06:32;8.18;;;6.60;;
40945;SDS011;55635;50.264;11.918;2023-06-10T10:09:13;9.80;;;7.18;;
40945;SDS011;55635;50.264;11.918;2023-06-10T10:11:54;7.90;;;7.20;;
40945;SDS011;55635;50.264;11.918;2023-06-10T10:14:37;7.00;;;6.40;;
40945;SDS011;55635;50.264;11.918;2023-06-10T10:17:25;12.68;;;8.30;;
40945;SDS011;55635;50.264;11.918;2023-06-10T10:20:08;21.95;;;7.47;;
40945;SDS011;55635;50.264;11.918;2023-06-10T10:22:52;8.68;;;7.53;;
40945;SDS011;55635;50.264;11.918;2023-06-10T10:25:38;8.95;;;7.57;;
40945;SDS011;55635;50.264;11.918;2023-06-10T10:28:24;8.43;;;6.15;;
40945;SDS011;55635;50.264;11.918;2023-06-10T10:31:09;9.23;;;6.85;;
40945;SDS011;55635;50.264;11.918;2023-06-10T10:33:55;14.57;;;7.13;;
40945;SDS011;55635;50.264;11.918;2023-06-10T10:36:39;7.85;;;7.15;;
40945;SDS011;55635;50.264;11.918;2023-06-10T10:39:21;16.65;;;7.50;;
40945;SDS011;55635;50.264;11.918;2023-06-10T10:42:04;9.73;;;6.97;;
40945;SDS011;55635;50.264;11.918;2023-06-10T10:44:49;11.63;;;7.53;;
40945;SDS011;55635;50.264;11.918;2023-06-10T10:47:31;13.02;;;7.68;;
40945;SDS011;55635;50.264;11.918;2023-06-10T10:50:16;8.75;;;7.93;;
40945;SDS011;55635;50.264;11.918;2023-06-10T10:52:59;9.10;;;8.20;;
40945;SDS011;55635;50.264;11.918;2023-06-10T10:55:42;9.10;;;7.75;;
40945;SDS011;55635;50.264;11.918;2023-06-10T10:59:02;10.40;;;7.85;;
40945;SDS011;55635;50.264;11.918;2023-06-10T11:01:45;14.02;;;8.13;;
40945;SDS011;55635;50.264;11.918;2023-06-10T11:04:26;9.45;;;7.32;;
40945;SDS011;55635;50.264;11.918;2023-06-10T11:07:07;7.65;;;7.07;;
40945;SDS011;55635;50.264;11.918;2023-06-10T11:12:52;8.32;;;7.28;;
40945;SDS011;55635;50.264;11.918;2023-06-10T11:15:37;10.27;;;7.68;;
40945;SDS011;55635;50.264;11.918;2023-06-10T11:18:29;8.90;;;7.60;;
40945;SDS011;55635;50.264;11.918;2023-06-10T11:21:16;9.45;;;7.65;;
40945;SDS011;55635;50.264;11.918;2023-06-10T11:23:57;10.25;;;9.27;;
40945;SDS011;55635;50.264;11.918;2023-06-10T11:26:43;10.00;;;8.40;;
40945;SDS011;55635;50.264;11.918;2023-06-10T11:29:24;9.85;;;8.40;;
40945;SDS011;55635;50.264;11.918;2023-06-10T11:32:05;11.43;;;9.77;;
40945;SDS011;55635;50.264;11.918;2023-06-10T11:34:53;10.35;;;8.43;;
40945;SDS011;55635;50.264;11.918;2023-06-10T11:37:34;15.20;;;9.07;;
40945;SDS011;55635;50.264;11.918;2023-06-10T11:40:16;10.10;;;9.05;;
40945;SDS011;55635;50.264;11.918;2023-06-10T11:42:57;15.05;;;8.85;;
40945;SDS011;55635;50.264;11.918;2023-06-10T11:45:40;8.52;;;7.65;;
40945;SDS011;55635;50.264;11.918;2023-06-10T11:48:21;9.82;;;7.22;;
40945;SDS011;55635;50.264;11.918;2023-06-10T11:51:06;9.32;;;8.15;;
40945;SDS011;55635;50.264;11.918;2023-06-10T11:53:48;10.68;;;8.32;;
40945;SDS011;55635;50.264;11.918;2023-06-10T11:56:30;11.52;;;7.93;;
40945;SDS011;55635;50.264;11.918;2023-06-10T11:59:12;11.48;;;8.77;;
40945;SDS011;55635;50.264;11.918;2023-06-10T12:01:53;9.98;;;8.68;;
40945;SDS011;55635;50.264;11.918;2023-06-10T12:04:34;48.47;;;12.45;;
40945;SDS011;55635;50.264;11.918;2023-06-10T12:07:18;12.20;;;8.60;;
40945;SDS011;55635;50.264;11.918;2023-06-10T12:09:59;11.23;;;8.20;;
40945;SDS011;55635;50.264;11.918;2023-06-10T12:12:40;43.22;;;10.80;;
40945;SDS011;55635;50.264;11.918;2023-06-10T12:15:23;13.90;;;8.77;;
40945;SDS011;55635;50.264;11.918;2023-06-10T12:18:05;10.57;;;8.02;;
40945;SDS011;55635;50.264;11.918;2023-06-10T12:20:46;8.77;;;7.97;;
40945;SDS011;55635;50.264;11.918;2023-06-10T12:23:31;9.55;;;8.55;;
40945;SDS011;55635;50.264;11.918;2023-06-10T12:26:13;11.82;;;9.18;;
40945;SDS011;55635;50.264;11.918;2023-06-10T12:28:54;11.82;;;10.27;;
40945;SDS011;55635;50.264;11.918;2023-06-10T12:31:51;9.60;;;8.60;;
40945;SDS011;55635;50.264;11.918;2023-06-10T12:34:44;9.40;;;8.60;;
40945;SDS011;55635;50.264;11.918;2023-06-10T12:37:26;9.57;;;8.70;;
40945;SDS011;55635;50.264;11.918;2023-06-10T12:40:07;10.75;;;7.75;;
40945;SDS011;55635;50.264;11.918;2023-06-10T12:42:49;7.35;;;6.68;;
40945;SDS011;55635;50.264;11.918;2023-06-10T12:45:32;32.05;;;7.50;;
40945;SDS011;55635;50.264;11.918;2023-06-10T12:48:20;25.60;;;7.63;;
40945;SDS011;55635;50.264;11.918;2023-06-10T12:51:03;7.70;;;6.90;;
40945;SDS011;55635;50.264;11.918;2023-06-10T12:53:46;8.75;;;7.85;;
40945;SDS011;55635;50.264;11.918;2023-06-10T12:56:26;9.90;;;7.72;;
40945;SDS011;55635;50.264;11.918;2023-06-10T12:59:08;12.02;;;8.88;;
40945;SDS011;55635;50.264;11.918;2023-06-10T13:01:52;14.27;;;9.15;;
40945;SDS011;55635;50.264;11.918;2023-06-10T13:04:34;14.73;;;9.52;;
40945;SDS011;55635;50.264;11.918;2023-06-10T13:07:16;11.18;;;10.05;;
40945;SDS011;55635;50.264;11.918;2023-06-10T13:09:58;13.25;;;10.35;;
40945;SDS011;55635;50.264;11.918;2023-06-10T13:12:39;11.38;;;9.75;;
40945;SDS011;55635;50.264;11.918;2023-06-10T13:15:20;11.68;;;9.40;;
40945;SDS011;55635;50.264;11.918;2023-06-10T13:18:03;11.50;;;10.15;;
40945;SDS011;55635;50.264;11.918;2023-06-10T13:20:44;12.32;;;10.02;;
40945;SDS011;55635;50.264;11.918;2023-06-10T13:23:25;10.23;;;9.20;;
40945;SDS011;55635;50.264;11.918;2023-06-10T13:26:06;9.98;;;9.02;;
40945;SDS011;55635;50.264;11.918;2023-06-10T13:28:47;10.10;;;9.10;;
40945;SDS011;55635;50.264;11.918;2023-06-10T13:31:28;11.43;;;9.10;;
40945;SDS011;55635;50.264;11.918;2023-06-10T13:34:09;10.65;;;9.65;;
40945;SDS011;55635;50.264;11.918;2023-06-10T13:36:50;9.90;;;8.90;;
40945;SDS011;55635;50.264;11.918;2023-06-10T13:39:31;8.77;;;7.97;;
40945;SDS011;55635;50.264;11.918;2023-06-10T13:42:12;9.63;;;8.63;;
40945;SDS011;55635;50.264;11.918;2023-06-10T13:44:53;8.60;;;7.80;;
40945;SDS011;55635;50.264;11.918;2023-06-10T13:47:34;8.55;;;7.85;;
40945;SDS011;55635;50.264;11.918;2023-06-10T13:50:15;8.25;;;7.50;;
40945;SDS011;55635;50.264;11.918;2023-06-10T13:52:55;9.30;;;7.90;;
40945;SDS011;55635;50.264;11.918;2023-06-10T13:55:37;8.50;;;7.85;;
40945;SDS011;55635;50.264;11.918;2023-06-10T13:58:18;7.88;;;7.18;;
40945;SDS011;55635;50.264;11.918;2023-06-10T14:00:59;9.50;;;8.57;;
40945;SDS011;55635;50.264;11.918;2023-06-10T14:03:41;9.20;;;7.57;;
40945;SDS011;55635;50.264;11.918;2023-06-10T14:06:22;8.75;;;7.78;;
40945;SDS011;55635;50.264;11.918;2023-06-10T14:09:03;8.45;;;7.75;;
40945;SDS011;55635;50.264;11.918;2023-06-10T14:11:44;8.55;;;7.75;;
40945;SDS011;55635;50.264;11.918;2023-06-10T14:14:25;7.93;;;7.22;;
40945;SDS011;55635;50.264;11.918;2023-06-10T14:17:06;9.43;;;8.25;;
40945;SDS011;55635;50.264;11.918;2023-06-10T14:19:47;8.13;;;6.75;;
40945;SDS011;55635;50.264;11.918;2023-06-10T14:22:28;7.75;;;7.15;;
40945;SDS011;55635;50.264;11.918;2023-06-10T14:25:09;7.57;;;6.88;;
40945;SDS011;55635;50.264;11.918;2023-06-10T14:27:51;6.80;;;6.20;;
40945;SDS011;55635;50.264;11.918;2023-06-10T14:30:32;7.40;;;6.75;;
40945;SDS011;55635;50.264;11.918;2023-06-10T14:33:13;6.82;;;6.32;;
40945;SDS011;55635;50.264;11.918;2023-06-10T14:35:54;7.10;;;6.28;;
40945;SDS011;55635;50.264;11.918;2023-06-10T14:38:35;6.88;;;6.28;;
40945;SDS011;55635;50.264;11.918;2023-06-10T14:41:16;6.18;;;5.57;;
40945;SDS011;55635;50.264;11.918;2023-06-10T14:43:57;6.28;;;5.75;;
40945;SDS011;55635;50.264;11.918;2023-06-10T14:46:38;6.35;;;5.85;;
40945;SDS011;55635;50.264;11.918;2023-06-10T14:49:19;6.75;;;6.05;;
40945;SDS011;55635;50.264;11.918;2023-06-10T14:52:00;6.50;;;6.00;;
40945;SDS011;55635;50.264;11.918;2023-06-10T14:54:41;6.72;;;6.22;;
40945;SDS011;55635;50.264;11.918;2023-06-10T14:57:21;6.57;;;5.97;;
40945;SDS011;55635;50.264;11.918;2023-06-10T15:00:03;9.02;;;6.90;;
40945;SDS011;55635;50.264;11.918;2023-06-10T15:02:45;7.00;;;6.40;;
40945;SDS011;55635;50.264;11.918;2023-06-10T15:05:28;7.50;;;6.72;;
40945;SDS011;55635;50.264;11.918;2023-06-10T15:08:08;6.95;;;6.50;;
40945;SDS011;55635;50.264;11.918;2023-06-10T15:10:50;7.35;;;6.65;;
40945;SDS011;55635;50.264;11.918;2023-06-10T15:13:31;7.32;;;6.55;;
40945;SDS011;55635;50.264;11.918;2023-06-10T15:16:11;7.97;;;6.30;;
40945;SDS011;55635;50.264;11.918;2023-06-10T15:18:52;7.32;;;6.72;;
40945;SDS011;55635;50.264;11.918;2023-06-10T15:21:33;8.50;;;7.63;;
40945;SDS011;55635;50.264;11.918;2023-06-10T15:24:15;7.82;;;7.15;;
40945;SDS011;55635;50.264;11.918;2023-06-10T15:26:56;8.90;;;8.10;;
40945;SDS011;55635;50.264;11.918;2023-06-10T15:29:37;9.48;;;6.07;;
40945;SDS011;55635;50.264;11.918;2023-06-10T15:32:18;10.82;;;8.30;;
40945;SDS011;55635;50.264;11.918;2023-06-10T15:34:58;8.85;;;6.10;;
40945;SDS011;55635;50.264;11.918;2023-06-10T15:37:39;12.10;;;9.68;;
40945;SDS011;55635;50.264;11.918;2023-06-10T15:40:20;13.60;;;7.82;;
40945;SDS011;55635;50.264;11.918;2023-06-10T15:43:01;8.65;;;6.50;;
40945;SDS011;55635;50.264;11.918;2023-06-10T15:45:43;5.68;;;5.28;;
40945;SDS011;55635;50.264;11.918;2023-06-10T15:48:24;6.13;;;5.45;;
40945;SDS011;55635;50.264;11.918;2023-06-10T15:51:05;6.00;;;5.32;;
40945;SDS011;55635;50.264;11.918;2023-06-10T15:53:45;6.30;;;5.50;;
40945;SDS011;55635;50.264;11.918;2023-06-10T15:56:27;6.18;;;5.35;;